createdAt,value
2023-01-20T00:02:17.005Z,21.03
2023-01-20T00:07:19.914Z,24.97
2023-01-20T00:12:22.857Z,17.77
2023-01-20T00:17:25.694Z,27.13
2023-01-20T00:22:28.550Z,19.83
2023-01-20T00:27:31.434Z,19.23
2023-01-20T05:36:06.315Z,13.13
2023-01-20T05:41:10.174Z,12.70
2023-01-20T05:46:13.156Z,10.13
2023-01-20T05:51:16.051Z,9.83
2023-01-20T05:56:18.990Z,12.37
2023-01-20T06:01:21.902Z,10.00
2023-01-20T06:06:24.836Z,15.97
2023-01-20T06:11:27.802Z,13.23
2023-01-20T06:16:30.700Z,17.20
2023-01-20T06:21:33.650Z,15.33
2023-01-20T06:26:36.537Z,16.57
2023-01-20T06:31:39.805Z,23.90
2023-01-20T06:36:42.793Z,19.77
2023-01-20T06:41:46.428Z,22.60
2023-01-20T06:46:49.396Z,16.27
2023-01-20T06:51:52.332Z,22.17
2023-01-20T06:56:55.212Z,19.50
2023-01-20T07:01:58.275Z,18.00
2023-01-20T07:07:01.571Z,13.60
2023-01-20T07:12:04.513Z,15.27
2023-01-20T07:17:12.170Z,18.27
2023-01-20T07:22:15.025Z,18.23
2023-01-20T07:27:17.914Z,20.90
2023-01-20T07:32:20.770Z,12.43
2023-01-20T07:37:23.650Z,14.53
2023-01-20T07:42:26.494Z,18.23
2023-01-20T07:47:29.361Z,22.30
2023-01-20T07:52:32.214Z,19.13
2023-01-20T07:57:35.109Z,16.90
2023-01-20T08:02:38.810Z,23.53
2023-01-20T08:07:41.691Z,22.67
2023-01-20T08:12:44.575Z,20.50
2023-01-20T08:17:47.456Z,19.83
2023-01-20T08:22:50.329Z,24.73
2023-01-20T08:27:53.173Z,24.00
2023-01-20T08:32:56.223Z,20.27
2023-01-20T08:37:59.112Z,19.77
2023-01-20T08:43:02.350Z,21.03
2023-01-20T08:48:05.253Z,20.40
2023-01-20T08:53:08.100Z,17.97
2023-01-20T08:58:10.962Z,23.50
2023-01-20T09:03:13.890Z,25.00
2023-01-20T09:08:17.732Z,21.23
2023-01-20T09:13:20.602Z,15.00
2023-01-20T09:18:23.584Z,27.87
2023-01-20T09:23:27.174Z,19.47
2023-01-20T09:28:30.364Z,29.53
2023-01-20T09:33:36.162Z,30.63
2023-01-20T09:38:57.679Z,24.40
2023-01-20T09:44:32.737Z,21.43
2023-01-20T09:50:02.224Z,19.80
2023-01-20T09:55:18.491Z,22.97
2023-01-20T10:00:23.128Z,38.80
2023-01-20T10:05:32.957Z,37.70
2023-01-20T10:10:46.662Z,32.93
2023-01-20T10:15:55.512Z,31.63
2023-01-20T10:21:10.449Z,30.30
2023-01-20T10:26:43.837Z,23.20
2023-01-20T10:31:53.366Z,27.23
2023-01-20T10:37:07.288Z,18.53
2023-01-20T10:42:18.667Z,25.63
2023-01-20T10:48:03.088Z,26.03
2023-01-20T10:53:35.736Z,19.37
2023-01-20T10:58:40.947Z,19.10
2023-01-20T11:03:47.310Z,20.33
2023-01-20T11:08:50.262Z,12.70
2023-01-20T11:13:53.488Z,16.27
2023-01-20T11:19:00.097Z,17.00
2023-01-20T11:24:29.656Z,12.10
2023-01-20T11:29:38.482Z,17.33
2023-01-20T11:34:49.629Z,20.80
2023-01-20T11:39:55.293Z,14.20
2023-01-20T11:45:20.368Z,13.37
2023-01-20T11:50:34.134Z,21.13
2023-01-20T11:55:53.462Z,17.50
2023-01-20T12:01:05.601Z,20.77
2023-01-20T12:06:58.177Z,22.63
2023-01-20T12:12:25.712Z,14.57
2023-01-20T12:17:42.447Z,11.73
2023-01-20T12:23:06.049Z,17.10
2023-01-20T12:28:19.801Z,11.90
2023-01-20T12:33:29.090Z,19.27
2023-01-20T12:38:57.774Z,19.70
2023-01-20T12:44:18.451Z,13.80
2023-01-20T12:49:24.047Z,11.27
2023-01-20T12:54:47.894Z,15.40
2023-01-20T13:00:00.654Z,22.33
2023-01-20T13:05:17.569Z,13.33
2023-01-20T13:10:53.558Z,18.93
2023-01-20T13:16:19.640Z,18.80
2023-01-20T13:21:22.542Z,17.37
2023-01-20T13:26:27.564Z,16.50
2023-01-20T13:31:42.917Z,16.30
2023-01-20T13:37:10.166Z,25.43
2023-01-20T13:42:47.383Z,17.07
2023-01-20T13:48:02.909Z,25.87
2023-01-20T13:53:20.555Z,18.33
2023-01-20T13:58:34.257Z,22.80
2023-01-20T14:03:38.650Z,23.50
2023-01-20T14:08:46.591Z,22.50
2023-01-20T14:13:57.206Z,26.93
2023-01-20T14:19:02.530Z,21.53
2023-01-20T14:24:05.494Z,31.27
2023-01-20T14:29:20.201Z,31.23
2023-01-20T14:34:32.698Z,24.77
2023-01-20T14:39:35.594Z,24.73
2023-01-20T14:44:38.432Z,32.53
2023-01-20T14:49:43.526Z,18.67
2023-01-20T14:54:48.623Z,21.70
2023-01-20T15:00:16.063Z,18.63
2023-01-20T15:05:30.653Z,23.87
2023-01-20T15:10:33.620Z,18.33
2023-01-20T15:15:36.524Z,21.37
2023-01-20T15:20:41.748Z,20.20
2023-01-20T15:25:44.811Z,19.10
2023-01-20T15:30:47.798Z,14.00
2023-01-20T15:35:58.701Z,14.63
2023-01-20T15:41:01.580Z,15.93
2023-01-20T15:46:10.885Z,19.93
2023-01-20T15:51:18.557Z,13.13
2023-01-20T15:56:23.339Z,18.17
2023-01-20T16:01:28.714Z,16.87
2023-01-20T16:06:32.959Z,13.47
2023-01-20T16:11:35.833Z,15.37
2023-01-20T16:16:38.767Z,22.27
2023-01-20T16:21:44.332Z,23.70
2023-01-20T16:26:48.269Z,25.73
2023-01-20T16:31:51.570Z,25.53
2023-01-20T16:36:54.451Z,18.07
2023-01-20T16:41:57.342Z,19.17
2023-01-20T16:47:00.255Z,15.70
2023-01-20T16:52:03.302Z,14.63
2023-01-20T16:57:06.215Z,20.30
2023-01-20T17:02:11.311Z,20.03
2023-01-20T17:07:14.216Z,17.83
2023-01-20T17:12:17.124Z,16.03
2023-01-20T17:17:20.168Z,18.60
2023-01-20T17:22:23.151Z,16.40
2023-01-20T17:27:26.171Z,21.20
2023-01-20T17:32:29.040Z,14.10
2023-01-20T17:37:31.977Z,17.97
2023-01-20T17:42:34.914Z,30.53
2023-01-20T17:47:37.844Z,22.57
2023-01-20T17:52:40.733Z,27.07
2023-01-20T17:57:43.613Z,17.90
2023-01-20T18:02:46.475Z,22.13
2023-01-20T18:07:50.377Z,19.80
2023-01-20T18:12:53.246Z,21.37
2023-01-20T18:17:56.105Z,16.13
2023-01-20T18:22:59.276Z,27.50
2023-01-20T18:28:02.220Z,24.60
2023-01-20T18:33:05.086Z,20.63
2023-01-20T18:38:08.155Z,22.70
2023-01-20T18:43:11.133Z,19.30
2023-01-20T18:48:14.106Z,23.97
2023-01-20T18:53:17.107Z,27.87
2023-01-20T18:58:20.101Z,17.10
2023-01-20T19:03:24.837Z,18.63
2023-01-20T19:08:27.852Z,15.40
2023-01-20T19:13:31.259Z,21.70
2023-01-20T19:18:34.250Z,21.67
2023-01-20T19:23:37.348Z,16.00
2023-01-20T19:28:40.866Z,14.60
2023-01-20T19:33:43.975Z,15.70
2023-01-20T19:38:47.420Z,15.27
2023-01-20T19:43:55.506Z,17.33
2023-01-20T19:48:59.671Z,18.47
2023-01-20T19:54:12.829Z,17.97
2023-01-20T19:59:15.732Z,19.77
2023-01-20T20:04:20.738Z,26.73
2023-01-20T20:09:26.293Z,19.77
2023-01-20T20:14:31.447Z,18.50
2023-01-20T20:19:35.080Z,17.33
2023-01-20T20:24:38.265Z,15.50
2023-01-20T20:29:41.293Z,11.50
2023-01-20T20:34:44.259Z,12.77
2023-01-20T20:39:47.076Z,12.90
2023-01-20T20:44:49.996Z,15.27
2023-01-20T20:49:52.826Z,18.67
2023-01-20T20:54:56.120Z,16.67
2023-01-20T20:59:59.581Z,15.23
2023-01-20T21:05:02.720Z,11.20
2023-01-20T21:10:06.149Z,16.53
2023-01-20T21:15:11.295Z,16.43
2023-01-20T21:20:14.357Z,10.23
2023-01-20T21:25:17.931Z,12.07
2023-01-20T21:30:20.995Z,17.87
2023-01-20T21:35:23.977Z,14.87
2023-01-20T21:40:26.853Z,20.77
2023-01-20T21:45:29.761Z,14.93
2023-01-20T21:50:51.425Z,15.40
2023-01-20T21:55:54.270Z,14.93
2023-01-20T22:00:57.322Z,14.83
2023-01-20T22:06:02.482Z,16.07
2023-01-20T22:11:05.502Z,12.07
2023-01-20T22:16:08.512Z,12.77
2023-01-20T22:21:11.438Z,13.60
2023-01-20T22:26:14.464Z,12.63
2023-01-20T22:31:23.978Z,13.83
2023-01-20T22:36:27.154Z,13.33
2023-01-20T22:41:31.167Z,14.30
2023-01-20T22:46:34.138Z,12.03
2023-01-20T22:51:37.003Z,10.03
2023-01-20T22:56:39.999Z,13.70
2023-01-20T23:01:42.990Z,12.87
2023-01-20T23:06:45.883Z,10.10
2023-01-20T23:11:49.452Z,13.90
2023-01-20T23:16:52.620Z,14.37
2023-01-20T23:21:55.475Z,6.37
2023-01-20T23:26:58.340Z,7.40
2023-01-20T23:32:01.249Z,3.70
2023-01-20T23:37:04.254Z,10.23
2023-01-20T23:42:07.096Z,5.43
2023-01-20T23:47:12.662Z,3.63
2023-01-20T23:52:15.573Z,4.57
2023-01-20T23:57:18.611Z,4.97
